createdAt,value
2022-09-06T00:03:17.223Z,17.65
2022-09-06T00:08:20.971Z,16.70
2022-09-06T00:13:24.610Z,17.50
2022-09-06T00:18:28.096Z,18.17
2022-09-06T00:23:32.188Z,17.48
2022-09-06T00:28:35.672Z,18.75
2022-09-06T00:33:39.726Z,18.17
2022-09-06T00:38:43.565Z,16.77
2022-09-06T00:43:46.996Z,16.58
2022-09-06T00:48:54.409Z,17.98
2022-09-06T00:53:58.563Z,18.55
2022-09-06T00:59:02.122Z,16.48
2022-09-06T01:04:05.549Z,16.63
2022-09-06T01:09:14.366Z,17.98
2022-09-06T01:14:39.404Z,18.75
2022-09-06T01:19:52.053Z,18.63
2022-09-06T01:25:07.388Z,18.05
2022-09-06T01:30:13.580Z,18.25
2022-09-06T01:35:41.369Z,17.67
2022-09-06T01:40:45.190Z,18.55
2022-09-06T01:46:01.247Z,19.30
2022-09-06T01:51:13.577Z,19.30
2022-09-06T01:56:41.606Z,17.70
2022-09-06T02:02:06.928Z,17.90
2022-09-06T02:07:32.565Z,18.80
2022-09-06T02:12:39.508Z,19.00
2022-09-06T02:17:57.304Z,19.08
2022-09-06T02:23:05.800Z,19.20
2022-09-06T02:28:10.493Z,18.30
2022-09-06T02:33:20.335Z,19.85
2022-09-06T02:38:27.274Z,19.33
2022-09-06T02:43:31.301Z,18.58
2022-09-06T02:48:35.027Z,18.65
2022-09-06T02:53:38.887Z,18.48
2022-09-06T02:58:42.490Z,19.23
2022-09-06T03:03:45.989Z,18.95
2022-09-06T03:08:49.578Z,18.60
2022-09-06T03:13:52.926Z,18.58
2022-09-06T03:18:56.305Z,19.48
2022-09-06T03:23:59.690Z,19.00
2022-09-06T03:29:02.953Z,19.77
2022-09-06T03:34:10.281Z,17.77
2022-09-06T03:39:14.447Z,18.45
2022-09-06T03:44:17.830Z,17.88
2022-09-06T03:49:21.231Z,18.30
2022-09-06T03:54:24.804Z,18.05
2022-09-06T03:59:28.224Z,15.20
2022-09-06T04:04:31.352Z,16.52
2022-09-06T04:09:35.042Z,15.98
2022-09-06T04:14:39.073Z,15.05
2022-09-06T04:19:42.935Z,14.93
2022-09-06T04:24:46.478Z,15.43
2022-09-06T04:29:50.580Z,15.63
2022-09-06T04:34:54.677Z,16.67
2022-09-06T04:39:58.000Z,16.92
2022-09-06T04:45:03.531Z,16.38
2022-09-06T04:50:10.496Z,15.10
2022-09-06T04:55:15.254Z,14.05
2022-09-06T05:00:34.342Z,14.57
2022-09-06T05:05:38.574Z,14.15
2022-09-06T05:10:42.183Z,15.10
2022-09-06T05:15:45.601Z,13.70
2022-09-06T05:20:53.286Z,12.45
2022-09-06T05:25:56.812Z,11.20
2022-09-06T05:31:22.834Z,11.60
2022-09-06T05:36:28.207Z,12.32
2022-09-06T05:41:31.628Z,13.50
2022-09-06T05:46:35.235Z,13.98
2022-09-06T05:51:39.811Z,13.50
2022-09-06T05:56:43.094Z,13.23
2022-09-06T06:01:51.333Z,14.20
2022-09-06T06:06:55.889Z,13.95
2022-09-06T06:11:59.638Z,13.32
2022-09-06T06:17:03.256Z,15.43
2022-09-06T06:22:06.681Z,14.52
2022-09-06T06:27:10.158Z,16.25
2022-09-06T06:32:13.416Z,14.18
2022-09-06T06:37:17.112Z,15.05
2022-09-06T06:42:21.112Z,13.70
2022-09-06T06:47:29.513Z,14.43
2022-09-06T06:52:33.008Z,17.20
2022-09-06T06:57:36.378Z,13.68
2022-09-06T07:02:39.596Z,13.90
2022-09-06T07:07:43.198Z,13.23
2022-09-06T07:12:46.849Z,13.73
2022-09-06T07:17:50.723Z,14.32
2022-09-06T07:28:28.187Z,14.68
2022-09-06T07:33:32.107Z,13.10
2022-09-06T07:38:36.559Z,15.95
2022-09-06T07:43:40.101Z,14.88
2022-09-06T07:48:46.340Z,14.15
2022-09-06T07:54:12.928Z,13.75
2022-09-06T07:59:18.502Z,13.73
2022-09-06T08:04:22.273Z,14.00
2022-09-06T08:09:25.591Z,14.70
2022-09-06T08:14:28.915Z,11.98
2022-09-06T08:19:32.628Z,12.38
2022-09-06T08:24:35.943Z,11.95
2022-09-06T08:29:39.204Z,14.88
2022-09-06T08:34:42.873Z,12.63
2022-09-06T08:39:46.566Z,12.52
2022-09-06T08:50:07.173Z,12.30
2022-09-06T08:55:19.422Z,12.75
2022-09-06T09:00:23.255Z,12.32
2022-09-06T09:05:34.101Z,12.18
2022-09-06T09:10:47.399Z,12.68
2022-09-06T09:15:50.974Z,11.60
2022-09-06T09:20:54.402Z,11.25
2022-09-06T09:26:12.317Z,11.88
2022-09-06T09:31:33.845Z,12.30
2022-09-06T09:42:09.404Z,10.85
2022-09-06T09:47:25.623Z,12.52
2022-09-06T09:52:31.708Z,12.55
2022-09-06T09:57:48.144Z,12.50
2022-09-06T10:02:51.792Z,10.73
2022-09-06T10:07:57.681Z,11.27
2022-09-06T10:13:10.221Z,11.18
2022-09-06T10:18:34.687Z,9.63
2022-09-06T10:29:39.380Z,13.10
2022-09-06T10:34:59.708Z,10.75
2022-09-06T10:40:08.352Z,8.70
2022-09-06T10:45:17.176Z,11.05
2022-09-06T10:50:24.501Z,9.77
2022-09-06T10:55:29.275Z,8.80
2022-09-06T11:00:44.936Z,10.90
2022-09-06T11:05:54.636Z,11.23
2022-09-06T11:11:03.356Z,9.80
2022-09-06T11:16:20.284Z,11.80
2022-09-06T11:21:37.687Z,9.70
2022-09-06T11:27:05.533Z,10.40
2022-09-06T11:32:42.833Z,8.90
2022-09-06T11:37:47.891Z,9.73
2022-09-06T11:42:51.492Z,10.80
2022-09-06T11:48:25.044Z,10.70
2022-09-06T11:53:49.162Z,10.07
2022-09-06T11:59:00.771Z,10.65
2022-09-06T12:09:29.111Z,10.40
2022-09-06T12:14:39.277Z,10.32
2022-09-06T12:19:59.840Z,9.50
2022-09-06T12:25:37.070Z,11.15
2022-09-06T12:30:45.120Z,9.18
2022-09-06T12:40:59.498Z,10.93
2022-09-06T12:46:06.483Z,10.20
2022-09-06T12:51:21.560Z,8.35
2022-09-06T12:56:28.248Z,8.00
2022-09-06T13:01:36.294Z,8.60
2022-09-06T13:06:44.772Z,7.57
2022-09-06T13:11:51.687Z,8.00
2022-09-06T13:16:55.694Z,7.65
2022-09-06T13:21:59.094Z,8.70
2022-09-06T13:27:23.254Z,7.68
2022-09-06T13:32:29.985Z,7.60
2022-09-06T13:37:34.541Z,7.70
2022-09-06T13:42:38.364Z,7.30
2022-09-06T13:47:41.794Z,7.70
2022-09-06T13:52:45.230Z,7.47
2022-09-06T13:57:50.481Z,7.80
2022-09-06T14:02:54.700Z,7.75
2022-09-06T14:07:58.318Z,6.70
2022-09-06T14:13:02.198Z,6.65
2022-09-06T14:18:12.576Z,6.93
2022-09-06T14:23:17.538Z,6.75
2022-09-06T14:28:21.102Z,7.20
2022-09-06T14:33:24.453Z,6.70
2022-09-06T14:38:27.775Z,6.68
2022-09-06T14:43:32.360Z,6.75
2022-09-06T14:48:41.494Z,6.40
2022-09-06T14:53:47.049Z,7.30
2022-09-06T14:58:50.952Z,6.88
2022-09-06T15:03:57.069Z,6.78
2022-09-06T15:09:01.279Z,7.00
2022-09-06T15:14:07.253Z,6.47
2022-09-06T15:19:10.828Z,7.35
2022-09-06T15:24:18.535Z,6.10
2022-09-06T15:29:22.563Z,7.32
2022-09-06T15:34:26.695Z,7.15
2022-09-06T15:39:30.263Z,5.88
2022-09-06T15:44:33.726Z,5.95
2022-09-06T15:49:38.059Z,6.25
2022-09-06T15:54:41.803Z,6.22
2022-09-06T15:59:45.328Z,6.20
2022-09-06T16:04:48.671Z,6.32
2022-09-06T16:09:52.325Z,6.40
2022-09-06T16:14:55.874Z,6.07
2022-09-06T16:20:00.016Z,6.22
2022-09-06T16:25:04.226Z,6.20
2022-09-06T16:30:08.406Z,6.90
2022-09-06T16:35:11.944Z,5.82
2022-09-06T16:40:15.731Z,7.25
2022-09-06T16:45:19.774Z,5.85
2022-09-06T16:50:23.246Z,6.20
2022-09-06T16:55:26.885Z,6.70
2022-09-06T17:00:30.300Z,6.93
2022-09-06T17:05:37.059Z,6.38
2022-09-06T17:10:41.935Z,6.68
2022-09-06T17:15:58.390Z,6.45
2022-09-06T17:21:13.668Z,7.00
2022-09-06T17:26:18.888Z,7.78
2022-09-06T17:31:25.667Z,7.22
2022-09-06T17:36:31.817Z,7.38
2022-09-06T17:41:41.507Z,8.23
2022-09-06T17:47:02.735Z,7.72
2022-09-06T17:52:09.173Z,7.78
2022-09-06T17:57:12.415Z,7.03
2022-09-06T18:02:15.796Z,7.50
2022-09-06T18:07:19.598Z,7.80
2022-09-06T18:12:23.200Z,7.30
2022-09-06T18:17:26.674Z,7.00
2022-09-06T18:22:30.532Z,7.05
2022-09-06T18:27:34.102Z,7.93
2022-09-06T18:32:37.647Z,7.20
2022-09-06T18:37:41.151Z,7.53
2022-09-06T18:42:45.673Z,7.32
2022-09-06T18:47:49.609Z,7.47
2022-09-06T18:52:53.125Z,6.90
2022-09-06T18:57:56.655Z,7.43
2022-09-06T19:03:01.689Z,8.20
2022-09-06T19:08:05.335Z,9.15
2022-09-06T19:13:09.152Z,7.35
2022-09-06T19:18:12.537Z,7.40
2022-09-06T19:23:15.921Z,7.50
2022-09-06T19:28:19.461Z,7.32
2022-09-06T19:33:34.239Z,7.22
2022-09-06T19:39:02.666Z,7.30
2022-09-06T19:44:05.588Z,7.25
2022-09-06T19:49:09.768Z,7.82
2022-09-06T19:54:14.465Z,7.65
2022-09-06T19:59:18.735Z,6.70
2022-09-06T20:04:22.519Z,6.50
2022-09-06T20:09:26.095Z,7.53
2022-09-06T20:14:29.529Z,7.80
2022-09-06T20:19:32.978Z,7.22
2022-09-06T20:24:43.635Z,7.80
2022-09-06T20:29:47.388Z,7.93
2022-09-06T20:34:50.859Z,7.72
2022-09-06T20:39:54.373Z,7.00
2022-09-06T20:44:58.292Z,7.40
2022-09-06T20:50:01.832Z,6.72
2022-09-06T20:55:08.589Z,7.38
2022-09-06T21:00:16.056Z,8.45
2022-09-06T21:05:19.641Z,7.53
2022-09-06T21:10:23.470Z,6.78
2022-09-06T21:15:27.678Z,6.95
2022-09-06T21:20:31.867Z,6.80
2022-09-06T21:25:35.407Z,6.60
2022-09-06T21:30:38.953Z,6.63
2022-09-06T21:35:42.636Z,6.43
2022-09-06T21:40:46.485Z,6.65
2022-09-06T21:45:50.130Z,6.32
2022-09-06T21:50:54.199Z,6.85
2022-09-06T21:56:01.412Z,7.45
2022-09-06T22:01:05.539Z,6.68
2022-09-06T22:06:16.735Z,6.93
2022-09-06T22:11:22.897Z,6.77
2022-09-06T22:16:30.230Z,7.68
2022-09-06T22:21:34.666Z,6.38
2022-09-06T22:26:39.865Z,6.63
2022-09-06T22:31:43.678Z,7.07
2022-09-06T22:36:47.144Z,6.97
2022-09-06T22:41:53.091Z,7.55
2022-09-06T22:46:57.022Z,6.93
2022-09-06T22:52:00.787Z,6.82
2022-09-06T22:57:04.487Z,6.93
2022-09-06T23:02:08.129Z,6.72
2022-09-06T23:07:11.714Z,6.80
2022-09-06T23:12:15.937Z,7.00
2022-09-06T23:17:20.384Z,6.97
2022-09-06T23:22:24.095Z,6.07
2022-09-06T23:27:28.080Z,6.28
2022-09-06T23:32:32.817Z,6.10
2022-09-06T23:37:36.269Z,5.75
2022-09-06T23:42:40.055Z,5.97
2022-09-06T23:47:44.186Z,5.57
2022-09-06T23:52:47.983Z,5.38
2022-09-06T23:57:51.370Z,5.68
